sensor_id;sensor_type;location;lat;lon;timestamp;P1;durP1;ratioP1;P2;durP2;ratioP2
10977;SDS011;5542;48.272;10.794;2023-05-07T00:00:29;2.50;;;2.30;;
10977;SDS011;5542;48.272;10.794;2023-05-07T00:02:57;2.50;;;2.30;;
10977;SDS011;5542;48.272;10.794;2023-05-07T00:05:24;2.40;;;2.30;;
10977;SDS011;5542;48.272;10.794;2023-05-07T00:07:51;1.93;;;1.83;;
10977;SDS011;5542;48.272;10.794;2023-05-07T00:10:17;1.92;;;1.83;;
10977;SDS011;5542;48.272;10.794;2023-05-07T00:12:44;1.73;;;1.63;;
10977;SDS011;5542;48.272;10.794;2023-05-07T00:15:11;1.95;;;1.85;;
10977;SDS011;5542;48.272;10.794;2023-05-07T00:17:37;1.88;;;1.77;;
10977;SDS011;5542;48.272;10.794;2023-05-07T00:20:06;1.92;;;1.83;;
10977;SDS011;5542;48.272;10.794;2023-05-07T00:22:33;1.90;;;1.80;;
10977;SDS011;5542;48.272;10.794;2023-05-07T00:25:00;2.17;;;2.07;;
10977;SDS011;5542;48.272;10.794;2023-05-07T00:27:26;1.70;;;1.60;;
10977;SDS011;5542;48.272;10.794;2023-05-07T00:29:53;1.85;;;1.75;;
10977;SDS011;5542;48.272;10.794;2023-05-07T00:32:20;1.80;;;1.70;;
10977;SDS011;5542;48.272;10.794;2023-05-07T00:34:46;2.00;;;1.90;;
10977;SDS011;5542;48.272;10.794;2023-05-07T00:37:14;2.30;;;2.20;;
10977;SDS011;5542;48.272;10.794;2023-05-07T00:39:41;2.40;;;2.20;;
10977;SDS011;5542;48.272;10.794;2023-05-07T00:42:07;1.80;;;1.70;;
10977;SDS011;5542;48.272;10.794;2023-05-07T00:44:34;2.38;;;2.28;;
10977;SDS011;5542;48.272;10.794;2023-05-07T00:47:01;2.60;;;2.40;;
10977;SDS011;5542;48.272;10.794;2023-05-07T00:49:32;2.70;;;2.50;;
10977;SDS011;5542;48.272;10.794;2023-05-07T00:52:03;2.53;;;2.33;;
10977;SDS011;5542;48.272;10.794;2023-05-07T00:54:32;2.60;;;2.40;;
10977;SDS011;5542;48.272;10.794;2023-05-07T00:57:01;2.80;;;2.60;;
10977;SDS011;5542;48.272;10.794;2023-05-07T00:59:28;2.65;;;2.45;;
10977;SDS011;5542;48.272;10.794;2023-05-07T01:01:56;2.80;;;2.60;;
10977;SDS011;5542;48.272;10.794;2023-05-07T01:04:22;2.45;;;2.35;;
10977;SDS011;5542;48.272;10.794;2023-05-07T01:06:49;2.33;;;2.22;;
10977;SDS011;5542;48.272;10.794;2023-05-07T01:09:16;2.10;;;2.00;;
10977;SDS011;5542;48.272;10.794;2023-05-07T01:11:46;2.47;;;2.38;;
10977;SDS011;5542;48.272;10.794;2023-05-07T01:14:13;2.22;;;2.13;;
10977;SDS011;5542;48.272;10.794;2023-05-07T01:16:40;2.43;;;2.30;;
10977;SDS011;5542;48.272;10.794;2023-05-07T01:19:06;2.33;;;2.13;;
10977;SDS011;5542;48.272;10.794;2023-05-07T01:21:35;2.30;;;2.20;;
10977;SDS011;5542;48.272;10.794;2023-05-07T01:24:06;2.47;;;2.30;;
10977;SDS011;5542;48.272;10.794;2023-05-07T01:26:33;2.03;;;1.92;;
10977;SDS011;5542;48.272;10.794;2023-05-07T01:29:00;2.70;;;2.50;;
10977;SDS011;5542;48.272;10.794;2023-05-07T01:31:27;2.65;;;2.47;;
10977;SDS011;5542;48.272;10.794;2023-05-07T01:33:53;3.10;;;2.90;;
10977;SDS011;5542;48.272;10.794;2023-05-07T01:36:22;2.38;;;2.28;;
10977;SDS011;5542;48.272;10.794;2023-05-07T01:38:52;2.70;;;2.50;;
10977;SDS011;5542;48.272;10.794;2023-05-07T01:41:21;2.70;;;2.50;;
10977;SDS011;5542;48.272;10.794;2023-05-07T01:43:50;2.53;;;2.35;;
10977;SDS011;5542;48.272;10.794;2023-05-07T01:46:18;2.20;;;2.10;;
10977;SDS011;5542;48.272;10.794;2023-05-07T01:48:45;2.10;;;2.00;;
10977;SDS011;5542;48.272;10.794;2023-05-07T01:51:12;2.13;;;2.03;;
10977;SDS011;5542;48.272;10.794;2023-05-07T01:53:38;1.90;;;1.80;;
10977;SDS011;5542;48.272;10.794;2023-05-07T01:56:06;1.90;;;1.80;;
10977;SDS011;5542;48.272;10.794;2023-05-07T01:58:34;2.10;;;2.00;;
10977;SDS011;5542;48.272;10.794;2023-05-07T02:01:01;2.10;;;2.00;;
10977;SDS011;5542;48.272;10.794;2023-05-07T02:03:27;2.20;;;2.10;;
10977;SDS011;5542;48.272;10.794;2023-05-07T02:05:54;2.40;;;2.30;;
10977;SDS011;5542;48.272;10.794;2023-05-07T02:08:20;2.00;;;1.90;;
10977;SDS011;5542;48.272;10.794;2023-05-07T02:10:47;2.00;;;1.90;;
10977;SDS011;5542;48.272;10.794;2023-05-07T02:13:14;2.60;;;2.40;;
10977;SDS011;5542;48.272;10.794;2023-05-07T02:15:42;2.33;;;2.22;;
10977;SDS011;5542;48.272;10.794;2023-05-07T02:18:12;3.00;;;2.80;;
10977;SDS011;5542;48.272;10.794;2023-05-07T02:20:38;2.90;;;2.70;;
10977;SDS011;5542;48.272;10.794;2023-05-07T02:23:05;3.50;;;3.20;;
10977;SDS011;5542;48.272;10.794;2023-05-07T02:25:31;3.33;;;3.03;;
10977;SDS011;5542;48.272;10.794;2023-05-07T02:27:58;2.78;;;2.58;;
10977;SDS011;5542;48.272;10.794;2023-05-07T02:30:25;3.05;;;2.80;;
10977;SDS011;5542;48.272;10.794;2023-05-07T02:32:53;3.03;;;2.83;;
10977;SDS011;5542;48.272;10.794;2023-05-07T02:35:19;3.00;;;2.80;;
10977;SDS011;5542;48.272;10.794;2023-05-07T02:37:46;2.92;;;2.72;;
10977;SDS011;5542;48.272;10.794;2023-05-07T02:40:12;2.70;;;2.60;;
10977;SDS011;5542;48.272;10.794;2023-05-07T02:42:39;2.97;;;2.78;;
10977;SDS011;5542;48.272;10.794;2023-05-07T02:45:06;3.10;;;2.90;;
10977;SDS011;5542;48.272;10.794;2023-05-07T02:47:33;2.80;;;2.60;;
10977;SDS011;5542;48.272;10.794;2023-05-07T02:50:01;2.80;;;2.60;;
10977;SDS011;5542;48.272;10.794;2023-05-07T02:52:28;2.97;;;2.78;;
10977;SDS011;5542;48.272;10.794;2023-05-07T02:54:55;2.85;;;2.65;;
10977;SDS011;5542;48.272;10.794;2023-05-07T02:57:21;2.72;;;2.53;;
10977;SDS011;5542;48.272;10.794;2023-05-07T02:59:48;2.10;;;2.00;;
10977;SDS011;5542;48.272;10.794;2023-05-07T03:02:14;2.33;;;2.22;;
10977;SDS011;5542;48.272;10.794;2023-05-07T03:04:41;2.30;;;2.20;;
10977;SDS011;5542;48.272;10.794;2023-05-07T03:07:09;2.20;;;2.00;;
10977;SDS011;5542;48.272;10.794;2023-05-07T03:09:36;1.70;;;1.60;;
10977;SDS011;5542;48.272;10.794;2023-05-07T03:12:02;1.97;;;1.87;;
10977;SDS011;5542;48.272;10.794;2023-05-07T03:14:29;2.13;;;2.00;;
10977;SDS011;5542;48.272;10.794;2023-05-07T03:16:56;2.13;;;2.03;;
10977;SDS011;5542;48.272;10.794;2023-05-07T03:19:22;2.40;;;2.30;;
10977;SDS011;5542;48.272;10.794;2023-05-07T03:21:49;2.30;;;2.20;;
10977;SDS011;5542;48.272;10.794;2023-05-07T03:24:17;2.15;;;2.05;;
10977;SDS011;5542;48.272;10.794;2023-05-07T03:26:43;2.15;;;2.05;;
10977;SDS011;5542;48.272;10.794;2023-05-07T03:29:10;2.40;;;2.30;;
10977;SDS011;5542;48.272;10.794;2023-05-07T03:31:36;31.30;;;19.77;;
10977;SDS011;5542;48.272;10.794;2023-05-07T03:34:04;23.43;;;14.70;;
10977;SDS011;5542;48.272;10.794;2023-05-07T03:36:30;12.70;;;9.47;;
10977;SDS011;5542;48.272;10.794;2023-05-07T03:38:57;11.35;;;8.32;;
10977;SDS011;5542;48.272;10.794;2023-05-07T03:41:25;11.27;;;7.60;;
10977;SDS011;5542;48.272;10.794;2023-05-07T03:43:51;11.00;;;8.03;;
10977;SDS011;5542;48.272;10.794;2023-05-07T03:46:18;9.02;;;7.03;;
10977;SDS011;5542;48.272;10.794;2023-05-07T03:48:44;9.15;;;7.03;;
10977;SDS011;5542;48.272;10.794;2023-05-07T03:51:11;7.07;;;5.60;;
10977;SDS011;5542;48.272;10.794;2023-05-07T03:53:37;6.70;;;5.72;;
10977;SDS011;5542;48.272;10.794;2023-05-07T03:56:04;5.00;;;4.35;;
10977;SDS011;5542;48.272;10.794;2023-05-07T03:58:32;4.40;;;3.77;;
10977;SDS011;5542;48.272;10.794;2023-05-07T04:00:59;4.73;;;4.10;;
10977;SDS011;5542;48.272;10.794;2023-05-07T04:03:26;4.28;;;3.88;;
10977;SDS011;5542;48.272;10.794;2023-05-07T04:05:52;3.67;;;3.30;;
10977;SDS011;5542;48.272;10.794;2023-05-07T04:08:19;3.47;;;3.17;;
10977;SDS011;5542;48.272;10.794;2023-05-07T04:10:45;3.60;;;3.30;;
10977;SDS011;5542;48.272;10.794;2023-05-07T04:13:12;3.42;;;3.22;;
10977;SDS011;5542;48.272;10.794;2023-05-07T04:15:40;3.33;;;3.05;;
10977;SDS011;5542;48.272;10.794;2023-05-07T04:18:07;3.30;;;3.00;;
10977;SDS011;5542;48.272;10.794;2023-05-07T04:20:33;3.00;;;2.80;;
10977;SDS011;5542;48.272;10.794;2023-05-07T04:23:01;2.80;;;2.60;;
10977;SDS011;5542;48.272;10.794;2023-05-07T04:25:27;2.33;;;2.20;;
10977;SDS011;5542;48.272;10.794;2023-05-07T04:27:54;2.40;;;2.30;;
10977;SDS011;5542;48.272;10.794;2023-05-07T04:30:20;2.40;;;2.30;;
10977;SDS011;5542;48.272;10.794;2023-05-07T04:32:48;2.42;;;2.30;;
10977;SDS011;5542;48.272;10.794;2023-05-07T04:35:15;2.90;;;2.70;;
10977;SDS011;5542;48.272;10.794;2023-05-07T04:37:44;2.30;;;2.20;;
10977;SDS011;5542;48.272;10.794;2023-05-07T04:40:10;2.72;;;2.53;;
10977;SDS011;5542;48.272;10.794;2023-05-07T04:42:37;2.67;;;2.50;;
10977;SDS011;5542;48.272;10.794;2023-05-07T04:45:04;3.20;;;3.00;;
10977;SDS011;5542;48.272;10.794;2023-05-07T04:47:31;3.28;;;3.08;;
10977;SDS011;5542;48.272;10.794;2023-05-07T04:49:59;2.90;;;2.70;;
10977;SDS011;5542;48.272;10.794;2023-05-07T04:52:26;3.05;;;2.85;;
10977;SDS011;5542;48.272;10.794;2023-05-07T04:54:53;3.15;;;2.95;;
10977;SDS011;5542;48.272;10.794;2023-05-07T04:57:19;3.22;;;3.03;;
10977;SDS011;5542;48.272;10.794;2023-05-07T04:59:46;3.13;;;2.90;;
10977;SDS011;5542;48.272;10.794;2023-05-07T05:02:12;3.85;;;3.55;;
10977;SDS011;5542;48.272;10.794;2023-05-07T05:04:39;3.60;;;3.30;;
10977;SDS011;5542;48.272;10.794;2023-05-07T05:07:07;4.13;;;3.28;;
10977;SDS011;5542;48.272;10.794;2023-05-07T05:09:33;4.00;;;3.70;;
10977;SDS011;5542;48.272;10.794;2023-05-07T05:12:00;4.05;;;3.70;;
10977;SDS011;5542;48.272;10.794;2023-05-07T05:14:27;4.45;;;4.05;;
10977;SDS011;5542;48.272;10.794;2023-05-07T05:16:53;4.13;;;3.80;;
10977;SDS011;5542;48.272;10.794;2023-05-07T05:19:20;3.90;;;3.60;;
10977;SDS011;5542;48.272;10.794;2023-05-07T05:21:46;4.70;;;4.30;;
10977;SDS011;5542;48.272;10.794;2023-05-07T05:24:14;4.97;;;4.57;;
10977;SDS011;5542;48.272;10.794;2023-05-07T05:26:41;4.00;;;3.70;;
10977;SDS011;5542;48.272;10.794;2023-05-07T05:29:07;5.03;;;4.60;;
10977;SDS011;5542;48.272;10.794;2023-05-07T05:31:34;4.68;;;4.32;;
10977;SDS011;5542;48.272;10.794;2023-05-07T05:34:01;4.78;;;4.38;;
10977;SDS011;5542;48.272;10.794;2023-05-07T05:36:28;5.00;;;4.60;;
10977;SDS011;5542;48.272;10.794;2023-05-07T05:38:55;5.90;;;5.40;;
10977;SDS011;5542;48.272;10.794;2023-05-07T05:41:23;5.15;;;4.75;;
10977;SDS011;5542;48.272;10.794;2023-05-07T05:43:50;4.90;;;4.50;;
10977;SDS011;5542;48.272;10.794;2023-05-07T05:46:16;5.03;;;4.57;;
10977;SDS011;5542;48.272;10.794;2023-05-07T05:48:43;5.10;;;4.60;;
10977;SDS011;5542;48.272;10.794;2023-05-07T05:51:10;4.35;;;3.97;;
10977;SDS011;5542;48.272;10.794;2023-05-07T05:53:36;4.95;;;4.55;;
10977;SDS011;5542;48.272;10.794;2023-05-07T05:56:03;5.07;;;4.57;;
10977;SDS011;5542;48.272;10.794;2023-05-07T05:58:31;5.88;;;5.30;;
10977;SDS011;5542;48.272;10.794;2023-05-07T06:00:58;5.10;;;4.70;;
10977;SDS011;5542;48.272;10.794;2023-05-07T06:03:25;5.03;;;4.40;;
10977;SDS011;5542;48.272;10.794;2023-05-07T06:05:51;5.97;;;5.38;;
10977;SDS011;5542;48.272;10.794;2023-05-07T06:08:18;5.50;;;5.00;;
10977;SDS011;5542;48.272;10.794;2023-05-07T06:10:44;5.63;;;5.13;;
10977;SDS011;5542;48.272;10.794;2023-05-07T06:13:11;5.40;;;4.90;;
10977;SDS011;5542;48.272;10.794;2023-05-07T06:15:39;5.50;;;5.00;;
10977;SDS011;5542;48.272;10.794;2023-05-07T06:18:05;4.95;;;4.55;;
10977;SDS011;5542;48.272;10.794;2023-05-07T06:20:32;5.75;;;5.25;;
10977;SDS011;5542;48.272;10.794;2023-05-07T06:22:59;5.00;;;4.60;;
10977;SDS011;5542;48.272;10.794;2023-05-07T06:25:25;6.32;;;5.82;;
10977;SDS011;5542;48.272;10.794;2023-05-07T06:27:52;6.20;;;5.60;;
10977;SDS011;5542;48.272;10.794;2023-05-07T06:30:18;6.47;;;5.88;;
10977;SDS011;5542;48.272;10.794;2023-05-07T06:32:46;6.47;;;5.88;;
10977;SDS011;5542;48.272;10.794;2023-05-07T06:35:13;6.38;;;5.78;;
10977;SDS011;5542;48.272;10.794;2023-05-07T06:37:40;6.13;;;5.57;;
10977;SDS011;5542;48.272;10.794;2023-05-07T06:40:07;5.72;;;5.22;;
10977;SDS011;5542;48.272;10.794;2023-05-07T06:42:35;5.63;;;5.13;;
10977;SDS011;5542;48.272;10.794;2023-05-07T06:45:02;5.75;;;5.25;;
10977;SDS011;5542;48.272;10.794;2023-05-07T06:47:30;5.38;;;4.97;;
10977;SDS011;5542;48.272;10.794;2023-05-07T06:49:57;5.78;;;5.28;;
10977;SDS011;5542;48.272;10.794;2023-05-07T06:52:24;5.80;;;5.30;;
10977;SDS011;5542;48.272;10.794;2023-05-07T06:54:51;6.03;;;5.53;;
10977;SDS011;5542;48.272;10.794;2023-05-07T06:57:17;5.75;;;5.13;;
10977;SDS011;5542;48.272;10.794;2023-05-07T06:59:44;5.95;;;5.40;;
10977;SDS011;5542;48.272;10.794;2023-05-07T07:02:10;5.88;;;5.25;;
10977;SDS011;5542;48.272;10.794;2023-05-07T07:04:37;5.47;;;4.97;;
10977;SDS011;5542;48.272;10.794;2023-05-07T07:07:05;4.63;;;4.32;;
10977;SDS011;5542;48.272;10.794;2023-05-07T07:09:31;4.57;;;4.18;;
10977;SDS011;5542;48.272;10.794;2023-05-07T07:11:58;4.95;;;4.55;;
10977;SDS011;5542;48.272;10.794;2023-05-07T07:14:25;4.78;;;4.38;;
10977;SDS011;5542;48.272;10.794;2023-05-07T07:16:52;5.40;;;4.90;;
10977;SDS011;5542;48.272;10.794;2023-05-07T07:19:19;4.90;;;4.50;;
10977;SDS011;5542;48.272;10.794;2023-05-07T07:21:46;4.85;;;4.45;;
10977;SDS011;5542;48.272;10.794;2023-05-07T07:24:14;5.45;;;4.90;;
10977;SDS011;5542;48.272;10.794;2023-05-07T07:26:44;4.75;;;4.35;;
10977;SDS011;5542;48.272;10.794;2023-05-07T07:29:10;4.38;;;4.07;;
10977;SDS011;5542;48.272;10.794;2023-05-07T07:31:37;4.57;;;4.18;;
10977;SDS011;5542;48.272;10.794;2023-05-07T07:34:03;4.70;;;4.30;;
10977;SDS011;5542;48.272;10.794;2023-05-07T07:36:30;4.40;;;4.10;;
10977;SDS011;5542;48.272;10.794;2023-05-07T07:38:56;4.13;;;3.83;;
10977;SDS011;5542;48.272;10.794;2023-05-07T07:41:24;4.53;;;4.15;;
10977;SDS011;5542;48.272;10.794;2023-05-07T07:43:51;4.05;;;3.50;;
10977;SDS011;5542;48.272;10.794;2023-05-07T07:46:17;4.40;;;3.97;;
10977;SDS011;5542;48.272;10.794;2023-05-07T07:48:44;4.10;;;3.80;;
10977;SDS011;5542;48.272;10.794;2023-05-07T07:51:11;4.40;;;4.00;;
10977;SDS011;5542;48.272;10.794;2023-05-07T07:53:37;3.80;;;3.50;;
10977;SDS011;5542;48.272;10.794;2023-05-07T07:56:04;4.97;;;4.30;;
10977;SDS011;5542;48.272;10.794;2023-05-07T07:58:32;4.83;;;4.40;;
10977;SDS011;5542;48.272;10.794;2023-05-07T08:01:00;4.20;;;3.90;;
10977;SDS011;5542;48.272;10.794;2023-05-07T08:03:27;4.67;;;4.27;;
10977;SDS011;5542;48.272;10.794;2023-05-07T08:05:56;4.50;;;4.20;;
10977;SDS011;5542;48.272;10.794;2023-05-07T08:08:23;4.20;;;3.80;;
10977;SDS011;5542;48.272;10.794;2023-05-07T08:10:49;5.38;;;4.95;;
10977;SDS011;5542;48.272;10.794;2023-05-07T08:13:17;4.50;;;4.10;;
10977;SDS011;5542;48.272;10.794;2023-05-07T08:15:45;4.00;;;3.70;;
10977;SDS011;5542;48.272;10.794;2023-05-07T08:18:11;3.95;;;3.53;;
10977;SDS011;5542;48.272;10.794;2023-05-07T08:20:38;3.77;;;3.40;;
10977;SDS011;5542;48.272;10.794;2023-05-07T08:23:06;3.33;;;3.10;;
10977;SDS011;5542;48.272;10.794;2023-05-07T08:25:33;3.75;;;3.45;;
10977;SDS011;5542;48.272;10.794;2023-05-07T08:27:59;3.60;;;3.30;;
10977;SDS011;5542;48.272;10.794;2023-05-07T08:30:26;3.08;;;2.88;;
10977;SDS011;5542;48.272;10.794;2023-05-07T08:32:54;3.67;;;3.05;;
10977;SDS011;5542;48.272;10.794;2023-05-07T08:35:21;3.60;;;3.23;;
10977;SDS011;5542;48.272;10.794;2023-05-07T08:37:47;3.22;;;3.03;;
10977;SDS011;5542;48.272;10.794;2023-05-07T08:40:14;3.40;;;3.10;;
10977;SDS011;5542;48.272;10.794;2023-05-07T08:42:41;3.40;;;3.00;;
10977;SDS011;5542;48.272;10.794;2023-05-07T08:45:09;3.22;;;3.03;;
10977;SDS011;5542;48.272;10.794;2023-05-07T08:47:39;3.75;;;3.45;;
10977;SDS011;5542;48.272;10.794;2023-05-07T08:50:10;3.17;;;2.97;;
10977;SDS011;5542;48.272;10.794;2023-05-07T08:52:36;3.20;;;3.00;;
10977;SDS011;5542;48.272;10.794;2023-05-07T08:55:03;3.77;;;3.50;;
10977;SDS011;5542;48.272;10.794;2023-05-07T08:57:31;3.70;;;3.50;;
10977;SDS011;5542;48.272;10.794;2023-05-07T08:59:58;4.43;;;4.03;;
10977;SDS011;5542;48.272;10.794;2023-05-07T09:02:24;3.35;;;3.08;;
10977;SDS011;5542;48.272;10.794;2023-05-07T09:04:51;3.30;;;3.10;;
10977;SDS011;5542;48.272;10.794;2023-05-07T09:07:19;3.33;;;3.08;;
10977;SDS011;5542;48.272;10.794;2023-05-07T09:09:46;3.55;;;3.35;;
10977;SDS011;5542;48.272;10.794;2023-05-07T09:12:13;3.65;;;3.03;;
10977;SDS011;5542;48.272;10.794;2023-05-07T09:14:40;3.10;;;2.90;;
10977;SDS011;5542;48.272;10.794;2023-05-07T09:17:06;3.28;;;3.05;;
10977;SDS011;5542;48.272;10.794;2023-05-07T09:19:33;5.53;;;3.22;;
10977;SDS011;5542;48.272;10.794;2023-05-07T09:22:00;3.05;;;2.80;;
10977;SDS011;5542;48.272;10.794;2023-05-07T09:24:28;2.80;;;2.60;;
10977;SDS011;5542;48.272;10.794;2023-05-07T09:27:00;2.78;;;2.63;;
10977;SDS011;5542;48.272;10.794;2023-05-07T09:29:27;2.60;;;2.40;;
10977;SDS011;5542;48.272;10.794;2023-05-07T09:31:55;3.78;;;3.00;;
10977;SDS011;5542;48.272;10.794;2023-05-07T09:34:22;2.80;;;2.60;;
10977;SDS011;5542;48.272;10.794;2023-05-07T09:36:48;2.95;;;2.65;;
10977;SDS011;5542;48.272;10.794;2023-05-07T09:39:15;2.80;;;2.60;;
10977;SDS011;5542;48.272;10.794;2023-05-07T09:41:44;2.60;;;2.50;;
10977;SDS011;5542;48.272;10.794;2023-05-07T09:44:11;2.30;;;2.20;;
10977;SDS011;5542;48.272;10.794;2023-05-07T09:46:38;2.65;;;2.20;;
10977;SDS011;5542;48.272;10.794;2023-05-07T09:49:08;2.70;;;2.58;;
10977;SDS011;5542;48.272;10.794;2023-05-07T09:51:43;2.80;;;2.60;;
10977;SDS011;5542;48.272;10.794;2023-05-07T09:54:14;3.58;;;2.58;;
10977;SDS011;5542;48.272;10.794;2023-05-07T09:56:41;2.30;;;2.20;;
10977;SDS011;5542;48.272;10.794;2023-05-07T09:59:12;2.70;;;2.50;;
10977;SDS011;5542;48.272;10.794;2023-05-07T10:01:39;2.55;;;2.35;;
10977;SDS011;5542;48.272;10.794;2023-05-07T10:04:08;2.40;;;2.20;;
10977;SDS011;5542;48.272;10.794;2023-05-07T10:06:35;2.70;;;2.20;;
10977;SDS011;5542;48.272;10.794;2023-05-07T10:09:02;2.47;;;2.28;;
10977;SDS011;5542;48.272;10.794;2023-05-07T10:11:31;2.40;;;2.30;;
10977;SDS011;5542;48.272;10.794;2023-05-07T10:14:00;2.30;;;2.20;;
10977;SDS011;5542;48.272;10.794;2023-05-07T10:16:27;2.88;;;1.88;;
10977;SDS011;5542;48.272;10.794;2023-05-07T10:18:55;1.77;;;1.60;;
10977;SDS011;5542;48.272;10.794;2023-05-07T10:21:22;1.90;;;1.80;;
10977;SDS011;5542;48.272;10.794;2023-05-07T10:23:50;2.00;;;1.80;;
10977;SDS011;5542;48.272;10.794;2023-05-07T10:26:20;1.77;;;1.60;;
10977;SDS011;5542;48.272;10.794;2023-05-07T10:28:50;2.40;;;1.60;;
10977;SDS011;5542;48.272;10.794;2023-05-07T10:31:33;2.03;;;1.92;;
10977;SDS011;5542;48.272;10.794;2023-05-07T10:34:09;1.77;;;1.67;;
10977;SDS011;5542;48.272;10.794;2023-05-07T10:36:39;1.92;;;1.77;;
10977;SDS011;5542;48.272;10.794;2023-05-07T10:39:07;2.10;;;2.00;;
10977;SDS011;5542;48.272;10.794;2023-05-07T10:41:34;1.80;;;1.70;;
10977;SDS011;5542;48.272;10.794;2023-05-07T10:44:01;2.03;;;1.67;;
10977;SDS011;5542;48.272;10.794;2023-05-07T10:46:30;1.63;;;1.48;;
10977;SDS011;5542;48.272;10.794;2023-05-07T10:49:06;2.15;;;1.90;;
10977;SDS011;5542;48.272;10.794;2023-05-07T10:51:33;1.90;;;1.73;;
10977;SDS011;5542;48.272;10.794;2023-05-07T10:54:19;1.53;;;1.50;;
10977;SDS011;5542;48.272;10.794;2023-05-07T10:56:52;1.70;;;1.60;;
10977;SDS011;5542;48.272;10.794;2023-05-07T10:59:32;1.30;;;1.30;;
10977;SDS011;5542;48.272;10.794;2023-05-07T11:02:07;2.13;;;1.75;;
10977;SDS011;5542;48.272;10.794;2023-05-07T11:04:36;1.67;;;1.57;;
10977;SDS011;5542;48.272;10.794;2023-05-07T11:09:56;1.80;;;1.70;;
10977;SDS011;5542;48.272;10.794;2023-05-07T11:15:15;2.60;;;2.40;;
10977;SDS011;5542;48.272;10.794;2023-05-07T11:18:01;2.20;;;2.00;;
10977;SDS011;5542;48.272;10.794;2023-05-07T11:20:49;2.00;;;1.90;;
10977;SDS011;5542;48.272;10.794;2023-05-07T11:26:25;2.60;;;2.40;;
10977;SDS011;5542;48.272;10.794;2023-05-07T11:28:53;1.50;;;1.40;;
10977;SDS011;5542;48.272;10.794;2023-05-07T11:31:22;1.77;;;1.67;;
10977;SDS011;5542;48.272;10.794;2023-05-07T11:33:52;1.52;;;1.42;;
10977;SDS011;5542;48.272;10.794;2023-05-07T11:36:20;1.65;;;1.55;;
10977;SDS011;5542;48.272;10.794;2023-05-07T11:38:48;1.50;;;1.40;;
10977;SDS011;5542;48.272;10.794;2023-05-07T11:41:15;1.77;;;1.67;;
10977;SDS011;5542;48.272;10.794;2023-05-07T11:43:55;1.60;;;1.50;;
10977;SDS011;5542;48.272;10.794;2023-05-07T11:46:23;1.80;;;1.45;;
10977;SDS011;5542;48.272;10.794;2023-05-07T11:48:49;1.90;;;1.80;;
10977;SDS011;5542;48.272;10.794;2023-05-07T11:51:19;1.58;;;1.48;;
10977;SDS011;5542;48.272;10.794;2023-05-07T11:53:46;2.05;;;1.88;;
10977;SDS011;5542;48.272;10.794;2023-05-07T11:56:13;1.70;;;1.60;;
10977;SDS011;5542;48.272;10.794;2023-05-07T11:58:41;1.88;;;1.65;;
10977;SDS011;5542;48.272;10.794;2023-05-07T12:01:09;1.85;;;1.70;;
10977;SDS011;5542;48.272;10.794;2023-05-07T12:03:37;1.50;;;1.40;;
10977;SDS011;5542;48.272;10.794;2023-05-07T12:06:06;1.60;;;1.50;;
10977;SDS011;5542;48.272;10.794;2023-05-07T12:08:35;1.55;;;1.38;;
10977;SDS011;5542;48.272;10.794;2023-05-07T12:11:02;1.48;;;1.38;;
10977;SDS011;5542;48.272;10.794;2023-05-07T12:13:29;1.60;;;1.50;;
10977;SDS011;5542;48.272;10.794;2023-05-07T12:15:56;1.80;;;1.70;;
10977;SDS011;5542;48.272;10.794;2023-05-07T12:18:23;2.10;;;1.63;;
10977;SDS011;5542;48.272;10.794;2023-05-07T12:20:50;2.03;;;1.67;;
10977;SDS011;5542;48.272;10.794;2023-05-07T12:23:19;1.60;;;1.50;;
10977;SDS011;5542;48.272;10.794;2023-05-07T12:25:46;1.48;;;1.30;;
10977;SDS011;5542;48.272;10.794;2023-05-07T12:28:13;1.70;;;1.60;;
10977;SDS011;5542;48.272;10.794;2023-05-07T12:30:40;1.50;;;1.40;;
10977;SDS011;5542;48.272;10.794;2023-05-07T12:33:08;1.92;;;1.50;;
10977;SDS011;5542;48.272;10.794;2023-05-07T12:35:36;1.83;;;1.52;;
10977;SDS011;5542;48.272;10.794;2023-05-07T12:38:07;1.70;;;1.55;;
10977;SDS011;5542;48.272;10.794;2023-05-07T12:40:39;1.55;;;1.45;;
10977;SDS011;5542;48.272;10.794;2023-05-07T12:43:06;1.53;;;1.43;;
10977;SDS011;5542;48.272;10.794;2023-05-07T12:45:36;1.73;;;1.63;;
10977;SDS011;5542;48.272;10.794;2023-05-07T12:48:03;1.73;;;1.63;;
10977;SDS011;5542;48.272;10.794;2023-05-07T12:50:31;2.47;;;1.60;;
10977;SDS011;5542;48.272;10.794;2023-05-07T12:52:58;1.50;;;1.42;;
10977;SDS011;5542;48.272;10.794;2023-05-07T12:55:25;1.50;;;1.40;;
10977;SDS011;5542;48.272;10.794;2023-05-07T12:57:53;2.00;;;1.80;;
10977;SDS011;5542;48.272;10.794;2023-05-07T13:00:35;1.60;;;1.50;;
10977;SDS011;5542;48.272;10.794;2023-05-07T13:03:02;1.70;;;1.60;;
10977;SDS011;5542;48.272;10.794;2023-05-07T13:05:29;1.75;;;1.65;;
10977;SDS011;5542;48.272;10.794;2023-05-07T13:07:56;1.40;;;1.30;;
10977;SDS011;5542;48.272;10.794;2023-05-07T13:10:23;1.95;;;1.85;;
10977;SDS011;5542;48.272;10.794;2023-05-07T13:12:51;2.30;;;2.10;;
10977;SDS011;5542;48.272;10.794;2023-05-07T13:15:21;1.88;;;1.77;;
10977;SDS011;5542;48.272;10.794;2023-05-07T13:17:48;2.30;;;2.10;;
10977;SDS011;5542;48.272;10.794;2023-05-07T13:20:15;2.00;;;1.77;;
10977;SDS011;5542;48.272;10.794;2023-05-07T13:22:42;1.73;;;1.48;;
10977;SDS011;5542;48.272;10.794;2023-05-07T13:25:08;1.80;;;1.67;;
10977;SDS011;5542;48.272;10.794;2023-05-07T13:27:35;1.40;;;1.30;;
10977;SDS011;5542;48.272;10.794;2023-05-07T13:30:02;1.80;;;1.70;;
10977;SDS011;5542;48.272;10.794;2023-05-07T13:32:31;2.95;;;1.95;;
10977;SDS011;5542;48.272;10.794;2023-05-07T13:34:58;1.38;;;1.38;;
10977;SDS011;5542;48.272;10.794;2023-05-07T13:37:25;1.67;;;1.58;;
10977;SDS011;5542;48.272;10.794;2023-05-07T13:39:51;1.50;;;1.40;;
10977;SDS011;5542;48.272;10.794;2023-05-07T13:42:19;1.45;;;1.35;;
10977;SDS011;5542;48.272;10.794;2023-05-07T13:44:46;1.30;;;1.20;;
10977;SDS011;5542;48.272;10.794;2023-05-07T13:47:12;1.10;;;1.10;;
10977;SDS011;5542;48.272;10.794;2023-05-07T13:49:40;1.38;;;1.30;;
10977;SDS011;5542;48.272;10.794;2023-05-07T13:52:07;1.83;;;1.70;;
10977;SDS011;5542;48.272;10.794;2023-05-07T13:54:33;2.50;;;1.80;;
10977;SDS011;5542;48.272;10.794;2023-05-07T13:57:00;2.80;;;1.80;;
10977;SDS011;5542;48.272;10.794;2023-05-07T13:59:27;2.00;;;1.53;;
10977;SDS011;5542;48.272;10.794;2023-05-07T14:01:53;1.53;;;1.47;;
10977;SDS011;5542;48.272;10.794;2023-05-07T14:04:20;1.80;;;1.70;;
10977;SDS011;5542;48.272;10.794;2023-05-07T14:06:48;1.60;;;1.50;;
10977;SDS011;5542;48.272;10.794;2023-05-07T14:09:15;1.50;;;1.40;;
10977;SDS011;5542;48.272;10.794;2023-05-07T14:11:42;1.83;;;1.73;;
10977;SDS011;5542;48.272;10.794;2023-05-07T14:14:09;1.90;;;1.80;;
10977;SDS011;5542;48.272;10.794;2023-05-07T14:16:36;2.05;;;1.88;;
10977;SDS011;5542;48.272;10.794;2023-05-07T14:19:03;1.60;;;1.50;;
10977;SDS011;5542;48.272;10.794;2023-05-07T14:21:30;1.60;;;1.50;;
10977;SDS011;5542;48.272;10.794;2023-05-07T14:23:58;1.75;;;1.40;;
10977;SDS011;5542;48.272;10.794;2023-05-07T14:26:25;2.03;;;1.92;;
10977;SDS011;5542;48.272;10.794;2023-05-07T14:28:52;2.33;;;2.00;;
10977;SDS011;5542;48.272;10.794;2023-05-07T14:31:20;1.75;;;1.65;;
10977;SDS011;5542;48.272;10.794;2023-05-07T14:33:47;2.05;;;1.50;;
10977;SDS011;5542;48.272;10.794;2023-05-07T14:36:14;1.60;;;1.50;;
10977;SDS011;5542;48.272;10.794;2023-05-07T14:38:41;1.95;;;1.85;;
10977;SDS011;5542;48.272;10.794;2023-05-07T14:41:09;1.98;;;1.88;;
10977;SDS011;5542;48.272;10.794;2023-05-07T14:43:35;1.88;;;1.70;;
10977;SDS011;5542;48.272;10.794;2023-05-07T14:46:02;2.10;;;2.00;;
10977;SDS011;5542;48.272;10.794;2023-05-07T14:48:29;1.90;;;1.80;;
10977;SDS011;5542;48.272;10.794;2023-05-07T14:50:55;2.03;;;1.90;;
10977;SDS011;5542;48.272;10.794;2023-05-07T14:53:22;2.10;;;2.00;;
10977;SDS011;5542;48.272;10.794;2023-05-07T14:55:49;2.25;;;2.00;;
10977;SDS011;5542;48.272;10.794;2023-05-07T14:58:18;2.30;;;2.20;;